createdAt,value
2023-10-25T00:00:21.511Z,67.53
2023-10-25T00:01:18.331Z,67.85
2023-10-25T00:02:15.078Z,69.25
2023-10-25T00:03:13.807Z,70.29
2023-10-25T00:04:11.403Z,71.32
2023-10-25T00:05:08.864Z,70.28
2023-10-25T00:06:05.690Z,70.14
2023-10-25T00:07:02.483Z,69.70
2023-10-25T00:07:59.357Z,69.23
2023-10-25T00:08:55.983Z,69.51
2023-10-25T00:09:52.755Z,69.39
2023-10-25T00:10:49.476Z,69.19
2023-10-25T00:11:46.115Z,69.54
2023-10-25T00:12:42.788Z,69.64
2023-10-25T00:13:39.531Z,68.21
2023-10-25T00:14:36.853Z,68.47
2023-10-25T00:15:33.539Z,68.27
2023-10-25T00:16:30.339Z,67.89
2023-10-25T00:17:27.114Z,66.99
2023-10-25T00:18:25.507Z,68.63
2023-10-25T00:19:22.166Z,68.13
2023-10-25T00:20:19.402Z,67.52
2023-10-25T00:21:16.083Z,67.41
2023-10-25T00:22:13.337Z,67.25
2023-10-25T00:23:10.061Z,67.30
2023-10-25T00:24:07.191Z,67.88
2023-10-25T00:25:04.141Z,69.34
2023-10-25T00:26:00.842Z,68.84
2023-10-25T00:26:57.595Z,69.00
2023-10-25T00:27:54.335Z,69.13
2023-10-25T00:28:51.181Z,68.64
2023-10-25T00:29:47.898Z,68.91
2023-10-25T00:30:48.389Z,69.20
2023-10-25T00:31:45.352Z,68.99
2023-10-25T00:32:44.072Z,68.97
2023-10-25T00:33:40.977Z,67.95
2023-10-25T00:34:37.725Z,67.75
2023-10-25T00:35:34.578Z,68.25
2023-10-25T00:36:31.202Z,68.50
2023-10-25T00:37:27.962Z,68.56
2023-10-25T00:38:24.752Z,68.52
2023-10-25T00:39:21.409Z,68.14
2023-10-25T00:40:18.119Z,67.96
2023-10-25T00:41:14.800Z,67.66
2023-10-25T00:42:11.455Z,68.00
2023-10-25T00:43:20.608Z,67.63
2023-10-25T00:44:17.292Z,67.80
2023-10-25T00:45:14.753Z,68.43
2023-10-25T00:46:16.352Z,68.03
2023-10-25T00:47:13.619Z,67.77
2023-10-25T00:48:10.481Z,68.07
2023-10-25T00:49:07.828Z,67.70
2023-10-25T00:50:05.117Z,67.65
2023-10-25T00:51:02.227Z,68.56
2023-10-25T00:51:59.576Z,68.15
2023-10-25T00:52:56.437Z,68.34
2023-10-25T00:53:55.568Z,68.94
2023-10-25T00:54:53.258Z,69.57
2023-10-25T00:55:51.610Z,68.78
2023-10-25T00:56:50.499Z,68.42
2023-10-25T00:57:47.252Z,69.18
2023-10-25T00:58:46.457Z,69.17
2023-10-25T00:59:43.735Z,68.63
2023-10-25T01:00:43.907Z,68.84
2023-10-25T01:01:42.644Z,68.82
2023-10-25T01:02:39.447Z,68.61
2023-10-25T01:03:37.110Z,68.86
2023-10-25T01:04:34.674Z,68.47
2023-10-25T01:05:31.553Z,66.88
2023-10-25T01:06:28.304Z,67.71
2023-10-25T01:07:25.030Z,67.77
2023-10-25T01:08:22.870Z,67.86
2023-10-25T01:09:19.580Z,67.91
2023-10-25T01:10:16.272Z,68.42
2023-10-25T01:11:13.305Z,68.35
2023-10-25T01:12:10.919Z,66.99
2023-10-25T01:13:07.953Z,67.45
2023-10-25T01:14:06.022Z,67.40
2023-10-25T01:15:02.913Z,67.40
2023-10-25T01:15:59.856Z,67.45
2023-10-25T01:16:56.766Z,67.97
2023-10-25T01:17:53.570Z,67.39
2023-10-25T01:18:50.375Z,66.72
2023-10-25T01:19:47.006Z,67.49
2023-10-25T01:20:46.708Z,68.41
2023-10-25T01:21:43.886Z,68.41
2023-10-25T01:22:40.732Z,68.40
2023-10-25T01:23:37.419Z,68.01
2023-10-25T01:24:34.132Z,69.01
2023-10-25T01:25:30.778Z,69.30
2023-10-25T01:26:27.464Z,68.89
2023-10-25T01:27:24.263Z,68.04
2023-10-25T01:28:20.967Z,67.28
2023-10-25T01:29:17.646Z,67.47
2023-10-25T01:30:14.418Z,67.81
2023-10-25T01:31:11.126Z,68.33
2023-10-25T01:32:08.264Z,68.68
2023-10-25T01:33:05.133Z,69.46
2023-10-25T01:34:01.953Z,69.63
2023-10-25T01:34:58.693Z,69.75
2023-10-25T01:35:55.330Z,69.61
2023-10-25T01:36:52.015Z,69.33
2023-10-25T01:37:48.995Z,69.43
2023-10-25T01:38:45.827Z,69.32
2023-10-25T01:39:42.756Z,68.87
2023-10-25T01:40:39.959Z,69.05
2023-10-25T01:41:36.639Z,69.90
2023-10-25T01:42:33.327Z,70.52
2023-10-25T01:43:30.191Z,69.87
2023-10-25T01:44:26.850Z,70.26
2023-10-25T01:45:24.518Z,69.91
2023-10-25T01:46:21.312Z,70.17
2023-10-25T01:47:18.085Z,70.72
2023-10-25T01:48:14.781Z,71.00
2023-10-25T01:49:11.533Z,70.67
2023-10-25T01:50:09.270Z,70.88
2023-10-25T01:51:09.916Z,70.73
2023-10-25T01:52:06.727Z,70.67
2023-10-25T01:53:04.563Z,71.14
2023-10-25T01:54:01.208Z,70.55
2023-10-25T01:54:57.972Z,70.60
2023-10-25T01:55:54.789Z,71.10
2023-10-25T01:56:51.544Z,71.42
2023-10-25T01:57:48.291Z,71.49
2023-10-25T01:58:45.104Z,70.98
2023-10-25T01:59:42.149Z,70.86
2023-10-25T02:00:41.133Z,70.50
2023-10-25T02:01:37.892Z,71.04
2023-10-25T02:02:35.135Z,70.96
2023-10-25T02:03:32.076Z,71.09
2023-10-25T02:04:29.058Z,70.70
2023-10-25T02:05:26.194Z,70.49
2023-10-25T02:06:23.000Z,70.27
2023-10-25T02:07:19.825Z,71.00
2023-10-25T02:08:17.831Z,70.64
2023-10-25T02:09:14.531Z,70.63
2023-10-25T02:10:11.434Z,70.60
2023-10-25T02:11:08.748Z,70.51
2023-10-25T02:12:05.817Z,70.20
2023-10-25T02:13:02.529Z,70.25
2023-10-25T02:13:59.381Z,70.40
2023-10-25T02:14:56.154Z,70.64
2023-10-25T02:15:52.862Z,70.20
2023-10-25T02:16:50.494Z,70.35
2023-10-25T02:17:47.321Z,70.62
2023-10-25T02:18:44.411Z,70.36
2023-10-25T02:19:42.740Z,70.84
2023-10-25T02:20:42.078Z,71.14
2023-10-25T02:21:39.027Z,70.96
2023-10-25T02:22:35.713Z,71.14
2023-10-25T02:23:32.425Z,71.69
2023-10-25T02:24:29.144Z,72.10
2023-10-25T02:25:25.870Z,71.89
2023-10-25T02:26:22.695Z,71.74
2023-10-25T02:27:19.433Z,71.34
2023-10-25T02:28:16.207Z,70.66
2023-10-25T02:29:13.127Z,71.08
2023-10-25T02:30:10.212Z,71.20
2023-10-25T02:31:07.094Z,70.92
2023-10-25T02:32:05.379Z,70.61
2023-10-25T02:33:02.102Z,71.17
2023-10-25T02:33:58.874Z,71.91
2023-10-25T02:34:55.603Z,71.69
2023-10-25T02:35:53.896Z,71.73
2023-10-25T02:36:50.616Z,71.69
2023-10-25T02:37:47.348Z,71.44
2023-10-25T02:38:44.010Z,70.97
2023-10-25T02:39:44.306Z,71.15
2023-10-25T02:40:41.213Z,71.36
2023-10-25T02:41:38.889Z,71.28
2023-10-25T02:42:36.582Z,71.45
2023-10-25T02:43:34.048Z,71.51
2023-10-25T02:44:30.746Z,71.23
2023-10-25T02:45:27.431Z,71.08
2023-10-25T02:46:24.728Z,70.49
2023-10-25T02:47:21.627Z,70.10
2023-10-25T02:48:18.326Z,70.02
2023-10-25T02:49:15.024Z,69.86
2023-10-25T02:50:11.729Z,70.10
2023-10-25T02:51:08.544Z,69.88
2023-10-25T02:52:05.370Z,70.15
2023-10-25T02:53:02.027Z,69.74
2023-10-25T02:53:58.676Z,70.55
2023-10-25T02:54:56.568Z,71.13
2023-10-25T02:56:03.252Z,70.85
2023-10-25T02:56:59.925Z,71.08
2023-10-25T02:57:56.741Z,71.28
2023-10-25T02:58:53.464Z,70.97
2023-10-25T02:59:52.859Z,70.61
2023-10-25T03:00:49.627Z,70.60
2023-10-25T03:01:46.536Z,71.05
2023-10-25T03:02:43.452Z,71.30
2023-10-25T03:03:40.154Z,71.91
2023-10-25T03:04:36.836Z,71.78
2023-10-25T03:05:33.580Z,71.59
2023-10-25T03:06:30.257Z,71.63
2023-10-25T03:07:26.955Z,71.87
2023-10-25T03:08:24.100Z,72.08
2023-10-25T03:09:20.807Z,71.28
2023-10-25T03:10:20.221Z,71.46
2023-10-25T03:11:17.103Z,72.10
2023-10-25T03:12:13.879Z,72.29
2023-10-25T03:13:10.698Z,72.22
2023-10-25T03:14:07.623Z,71.37
2023-10-25T03:15:04.641Z,71.99
2023-10-25T03:16:01.491Z,72.44
2023-10-25T03:16:58.375Z,72.01
2023-10-25T03:17:55.882Z,72.25
2023-10-25T03:18:52.749Z,72.24
2023-10-25T03:19:49.429Z,72.65
2023-10-25T03:20:46.079Z,71.45
2023-10-25T03:21:43.059Z,70.17
2023-10-25T03:22:39.834Z,69.69
2023-10-25T03:23:37.237Z,70.61
2023-10-25T03:24:34.423Z,70.39
2023-10-25T03:25:31.157Z,70.33
2023-10-25T03:26:27.845Z,70.39
2023-10-25T03:27:24.576Z,70.34
2023-10-25T03:28:21.304Z,70.18
2023-10-25T03:29:17.987Z,70.01
2023-10-25T03:30:14.786Z,70.81
2023-10-25T03:31:11.832Z,70.83
2023-10-25T03:32:08.740Z,71.27
2023-10-25T03:33:05.564Z,71.54
2023-10-25T03:34:02.354Z,72.00
2023-10-25T03:34:59.152Z,72.55
2023-10-25T03:35:56.292Z,73.45
2023-10-25T03:36:53.030Z,72.54
2023-10-25T03:37:49.810Z,71.83
2023-10-25T03:38:46.524Z,70.33
2023-10-25T03:39:43.589Z,70.01
2023-10-25T03:40:40.581Z,70.83
2023-10-25T03:41:37.320Z,71.28
2023-10-25T03:42:34.138Z,71.59
2023-10-25T03:43:32.567Z,71.42
2023-10-25T03:44:29.289Z,71.72
2023-10-25T03:45:26.115Z,70.98
2023-10-25T03:46:22.839Z,71.07
2023-10-25T03:47:19.607Z,71.67
2023-10-25T03:48:16.271Z,71.69
2023-10-25T03:49:13.299Z,71.14
2023-10-25T03:50:10.149Z,70.58
2023-10-25T03:51:07.806Z,70.14
2023-10-25T03:52:04.999Z,70.34
2023-10-25T03:53:01.734Z,71.13
2023-10-25T03:53:58.686Z,71.60
2023-10-25T03:54:55.456Z,71.48
2023-10-25T03:55:58.535Z,70.74
2023-10-25T03:56:55.198Z,70.83
2023-10-25T03:57:51.918Z,70.83
2023-10-25T03:58:48.563Z,70.72
2023-10-25T03:59:45.322Z,70.84
2023-10-25T04:00:42.070Z,71.25
2023-10-25T04:01:42.474Z,71.43
2023-10-25T04:02:39.324Z,71.55
2023-10-25T04:03:36.576Z,71.89
2023-10-25T04:04:33.627Z,71.57
2023-10-25T04:05:30.518Z,71.10
2023-10-25T04:06:27.202Z,71.90
2023-10-25T04:07:23.960Z,71.87
2023-10-25T04:08:20.841Z,71.24
2023-10-25T04:09:17.783Z,71.91
2023-10-25T04:10:14.741Z,71.76
2023-10-25T04:11:11.453Z,71.15
2023-10-25T04:12:13.374Z,70.64
2023-10-25T04:13:11.042Z,69.47
2023-10-25T04:14:07.704Z,69.21
2023-10-25T04:15:04.822Z,69.51
2023-10-25T04:16:03.754Z,69.90
2023-10-25T04:17:00.494Z,69.35
2023-10-25T04:17:57.352Z,69.70
2023-10-25T04:18:54.177Z,69.66
2023-10-25T04:19:51.454Z,70.09
2023-10-25T04:20:48.474Z,70.05
2023-10-25T04:21:45.277Z,69.86
2023-10-25T04:22:42.075Z,70.17
2023-10-25T04:23:41.989Z,69.86
2023-10-25T04:24:38.663Z,69.59
2023-10-25T04:25:35.461Z,68.81
2023-10-25T04:26:32.189Z,68.03
2023-10-25T04:27:28.869Z,68.53
2023-10-25T04:28:25.644Z,68.32
2023-10-25T04:29:22.396Z,68.86
2023-10-25T04:30:19.099Z,69.07
2023-10-25T04:31:16.336Z,69.20
2023-10-25T04:32:13.047Z,69.13
2023-10-25T04:33:09.816Z,68.99
2023-10-25T04:34:06.505Z,68.37
2023-10-25T04:35:03.391Z,68.97
2023-10-25T04:36:00.347Z,69.31
2023-10-25T04:36:57.166Z,69.84
2023-10-25T04:37:55.995Z,70.46
2023-10-25T04:38:52.670Z,69.33
2023-10-25T04:39:52.500Z,69.31
2023-10-25T04:40:49.233Z,69.81
2023-10-25T04:41:45.942Z,69.61
2023-10-25T04:42:42.724Z,69.69
2023-10-25T04:43:39.400Z,69.85
2023-10-25T04:44:36.166Z,69.36
2023-10-25T04:45:35.938Z,69.12
2023-10-25T04:46:32.807Z,68.69
2023-10-25T04:47:29.614Z,68.78
2023-10-25T04:48:26.849Z,68.09
2023-10-25T04:49:23.645Z,68.17
2023-10-25T04:50:21.700Z,67.97
2023-10-25T04:51:18.373Z,68.01
2023-10-25T04:52:15.095Z,67.97
2023-10-25T04:53:12.050Z,68.14
2023-10-25T04:54:08.730Z,68.18
2023-10-25T04:55:06.096Z,68.13
2023-10-25T04:56:02.986Z,67.91
2023-10-25T04:56:59.749Z,67.39
2023-10-25T04:57:57.788Z,67.38
2023-10-25T04:58:54.651Z,67.27
2023-10-25T04:59:51.910Z,67.25
2023-10-25T05:00:48.779Z,67.89
2023-10-25T05:01:45.681Z,68.10
2023-10-25T05:02:42.447Z,68.42
2023-10-25T05:03:39.288Z,68.25
2023-10-25T05:04:36.040Z,68.25
2023-10-25T05:05:34.055Z,67.82
2023-10-25T05:06:31.026Z,67.59
2023-10-25T05:07:27.934Z,67.39
2023-10-25T05:08:24.844Z,67.24
2023-10-25T05:09:21.761Z,66.97
2023-10-25T05:10:19.142Z,66.94
2023-10-25T05:11:17.340Z,66.92
2023-10-25T05:12:18.972Z,66.99
2023-10-25T05:13:16.920Z,66.78
2023-10-25T05:14:13.967Z,66.73
2023-10-25T05:15:12.255Z,67.03
2023-10-25T05:16:09.666Z,66.91
2023-10-25T05:17:08.252Z,66.71
2023-10-25T05:18:05.606Z,66.85
2023-10-25T05:19:02.740Z,65.86
2023-10-25T05:19:59.638Z,65.71
2023-10-25T05:21:01.735Z,65.48
2023-10-25T05:22:00.877Z,65.47
2023-10-25T05:23:01.226Z,65.66
2023-10-25T05:23:58.334Z,65.06
2023-10-25T05:24:55.905Z,66.07
2023-10-25T05:25:52.818Z,65.25
2023-10-25T05:26:49.925Z,64.49
2023-10-25T05:27:47.079Z,64.52
2023-10-25T05:28:43.963Z,64.91
2023-10-25T05:29:41.413Z,65.23
2023-10-25T05:30:38.524Z,64.95
2023-10-25T05:31:36.358Z,64.96
2023-10-25T05:32:35.598Z,65.11
2023-10-25T05:33:33.454Z,64.83
2023-10-25T05:34:30.858Z,65.04
2023-10-25T05:35:27.988Z,64.78
2023-10-25T05:36:25.059Z,64.34
2023-10-25T05:37:22.050Z,63.96
2023-10-25T05:38:19.092Z,64.28
2023-10-25T05:39:16.147Z,63.83
2023-10-25T05:40:13.641Z,63.55
2023-10-25T05:41:15.889Z,63.93
2023-10-25T05:42:22.530Z,64.19
2023-10-25T05:43:28.904Z,63.95
2023-10-25T05:44:25.880Z,63.95
2023-10-25T05:45:22.561Z,63.73
2023-10-25T05:46:19.334Z,63.53
2023-10-25T05:47:16.190Z,63.35
2023-10-25T05:48:16.602Z,63.34
2023-10-25T05:49:13.789Z,63.74
2023-10-25T05:50:14.026Z,64.12
2023-10-25T05:51:10.982Z,63.54
2023-10-25T05:52:09.301Z,62.84
2023-10-25T05:53:06.262Z,62.69
2023-10-25T05:58:34.361Z,62.36
2023-10-25T05:59:31.758Z,62.16
2023-10-25T06:00:28.738Z,63.23
2023-10-25T06:01:51.651Z,62.93
2023-10-25T06:02:51.066Z,63.30
2023-10-25T06:03:48.412Z,63.22
2023-10-25T06:04:45.756Z,62.58
2023-10-25T06:05:43.948Z,62.58
2023-10-25T06:06:43.552Z,62.87
2023-10-25T06:07:40.909Z,62.35
2023-10-25T06:08:38.034Z,62.33
2023-10-25T06:09:35.746Z,61.84
2023-10-25T06:10:32.845Z,62.36
2023-10-25T06:11:29.958Z,61.05
2023-10-25T06:12:27.058Z,61.76
2023-10-25T06:13:24.057Z,61.26
2023-10-25T06:14:21.146Z,61.22
2023-10-25T06:15:18.197Z,61.17
2023-10-25T06:16:15.177Z,60.85
2023-10-25T06:17:12.179Z,61.21
2023-10-25T06:18:10.500Z,60.64
2023-10-25T06:19:07.656Z,59.77
2023-10-25T06:20:05.652Z,60.73
2023-10-25T06:21:02.381Z,60.17
2023-10-25T06:21:59.181Z,59.74
2023-10-25T06:22:57.789Z,59.40
2023-10-25T06:23:54.873Z,58.84
2023-10-25T06:24:51.655Z,59.13
2023-10-25T06:25:48.350Z,59.12
2023-10-25T06:26:45.250Z,59.10
2023-10-25T06:27:42.092Z,58.66
2023-10-25T06:28:38.768Z,58.83
2023-10-25T06:29:35.612Z,58.13
2023-10-25T06:30:34.054Z,58.33
2023-10-25T06:31:31.004Z,59.00
2023-10-25T06:32:28.013Z,58.46
2023-10-25T06:33:26.254Z,58.38
2023-10-25T06:34:23.024Z,58.53
2023-10-25T06:35:19.837Z,58.64
2023-10-25T06:36:17.590Z,58.75
2023-10-25T06:37:14.572Z,58.50
2023-10-25T06:38:11.590Z,58.52
2023-10-25T06:39:08.898Z,58.73
2023-10-25T06:40:06.656Z,58.50
2023-10-25T06:41:04.217Z,57.69
2023-10-25T06:42:01.148Z,57.94
2023-10-25T06:42:58.130Z,57.26
2023-10-25T06:43:55.032Z,57.00
2023-10-25T06:44:52.329Z,57.25
2023-10-25T06:45:49.654Z,57.11
2023-10-25T06:46:46.816Z,56.94
2023-10-25T06:47:44.136Z,56.56
2023-10-25T06:48:41.344Z,56.24
2023-10-25T06:49:38.205Z,55.81
2023-10-25T06:50:35.370Z,55.40
2023-10-25T06:51:32.309Z,55.34
2023-10-25T06:52:29.215Z,55.51
2023-10-25T06:53:26.188Z,55.27
2023-10-25T06:54:23.095Z,54.64
2023-10-25T06:55:20.143Z,55.02
2023-10-25T06:56:17.106Z,55.46
2023-10-25T06:57:14.889Z,54.89
2023-10-25T06:58:11.971Z,54.59
2023-10-25T06:59:09.315Z,53.99
2023-10-25T07:00:10.232Z,54.18
2023-10-25T07:01:08.404Z,54.46
2023-10-25T07:02:41.989Z,54.74
2023-10-25T07:03:45.584Z,54.01
2023-10-25T07:04:44.061Z,54.13
2023-10-25T07:05:43.480Z,54.17
2023-10-25T07:06:40.771Z,54.22
2023-10-25T07:07:39.279Z,53.89
2023-10-25T07:08:36.504Z,53.86
2023-10-25T07:09:33.557Z,53.60
2023-10-25T07:10:31.010Z,53.68
2023-10-25T07:11:27.767Z,53.34
2023-10-25T07:12:24.970Z,52.87
2023-10-25T07:13:21.713Z,52.57
2023-10-25T07:14:18.524Z,52.98
2023-10-25T07:15:15.727Z,53.47
2023-10-25T07:16:12.822Z,53.27
2023-10-25T07:17:09.760Z,52.61
2023-10-25T07:18:06.653Z,52.23
2023-10-25T07:19:04.191Z,51.68
2023-10-25T07:20:00.918Z,51.88
2023-10-25T07:20:59.423Z,51.56
2023-10-25T07:21:56.155Z,51.71
2023-10-25T07:22:52.882Z,51.79
2023-10-25T07:23:49.638Z,51.10
2023-10-25T07:24:46.403Z,51.22
2023-10-25T07:25:44.322Z,51.41
2023-10-25T07:26:42.347Z,51.54
2023-10-25T07:27:39.330Z,50.92
2023-10-25T07:28:36.101Z,51.00
2023-10-25T07:29:32.832Z,51.10
2023-10-25T07:30:29.617Z,50.53
2023-10-25T07:31:26.492Z,51.10
2023-10-25T07:32:23.277Z,50.84
2023-10-25T07:33:20.062Z,50.65
2023-10-25T07:34:16.842Z,50.94
2023-10-25T07:35:13.572Z,51.24
2023-10-25T07:36:10.525Z,51.08
2023-10-25T07:37:07.443Z,51.34
2023-10-25T07:38:04.198Z,50.84
2023-10-25T07:39:01.353Z,50.75
2023-10-25T07:39:58.093Z,50.54
2023-10-25T07:41:51.458Z,50.73
2023-10-25T07:42:48.188Z,50.41
2023-10-25T07:43:45.140Z,50.37
2023-10-25T07:44:42.022Z,50.43
2023-10-25T07:45:38.852Z,50.34
2023-10-25T07:46:35.731Z,50.17
2023-10-25T07:47:32.565Z,49.97
2023-10-25T07:48:29.237Z,50.16
2023-10-25T07:49:26.181Z,50.18
2023-10-25T07:50:22.854Z,49.89
2023-10-25T07:51:19.550Z,50.08
2023-10-25T07:52:17.791Z,49.76
2023-10-25T07:53:14.624Z,50.20
2023-10-25T07:54:11.310Z,49.33
2023-10-25T07:55:28.137Z,49.38
2023-10-25T07:57:07.778Z,49.29
2023-10-25T07:58:41.553Z,49.84
2023-10-25T07:59:38.999Z,49.55
2023-10-25T08:00:35.781Z,49.68
2023-10-25T08:01:32.548Z,49.59
2023-10-25T08:02:29.433Z,49.53
2023-10-25T08:03:27.750Z,49.55
2023-10-25T08:04:24.860Z,49.61
2023-10-25T08:05:21.653Z,48.79
2023-10-25T08:06:18.587Z,48.93
2023-10-25T08:07:15.383Z,49.10
2023-10-25T08:08:12.139Z,48.51
2023-10-25T08:09:08.875Z,47.90
2023-10-25T08:10:07.282Z,47.73
2023-10-25T08:11:06.004Z,48.21
2023-10-25T08:12:02.787Z,48.89
2023-10-25T08:12:59.471Z,48.89
2023-10-25T08:13:56.400Z,48.88
2023-10-25T08:14:53.188Z,48.78
2023-10-25T08:15:57.336Z,48.13
2023-10-25T08:16:54.044Z,47.66
2023-10-25T08:17:54.988Z,47.75
2023-10-25T08:18:51.739Z,48.33
2023-10-25T08:19:48.418Z,47.90
2023-10-25T08:20:45.152Z,47.44
2023-10-25T08:21:42.008Z,47.59
2023-10-25T08:22:38.730Z,47.70
2023-10-25T08:23:35.888Z,47.88
2023-10-25T08:24:33.034Z,47.65
2023-10-25T08:25:29.742Z,47.70
2023-10-25T08:26:27.729Z,47.90
2023-10-25T08:27:24.431Z,47.80
2023-10-25T08:28:21.274Z,47.99
2023-10-25T08:29:18.008Z,48.01
2023-10-25T08:30:15.758Z,47.40
2023-10-25T08:31:13.628Z,47.35
2023-10-25T08:32:10.323Z,46.69
2023-10-25T08:33:07.440Z,46.22
2023-10-25T08:34:04.545Z,46.02
2023-10-25T08:35:01.299Z,46.07
2023-10-25T08:36:02.942Z,46.02
2023-10-25T08:37:00.072Z,46.54
2023-10-25T08:37:56.832Z,46.36
2023-10-25T08:38:54.058Z,46.08
2023-10-25T08:39:50.816Z,46.29
2023-10-25T08:40:47.470Z,46.09
2023-10-25T08:41:48.069Z,45.63
2023-10-25T08:42:45.185Z,46.07
2023-10-25T08:43:41.939Z,45.66
2023-10-25T08:44:40.742Z,46.31
2023-10-25T08:45:37.625Z,45.83
2023-10-25T08:46:35.052Z,45.32
2023-10-25T08:47:31.776Z,44.95
2023-10-25T08:48:28.780Z,45.47
2023-10-25T08:49:25.647Z,45.43
2023-10-25T08:50:22.379Z,45.63
2023-10-25T08:51:19.659Z,45.31
2023-10-25T08:52:23.661Z,44.83
2023-10-25T08:53:25.627Z,44.89
2023-10-25T08:54:25.248Z,44.89
2023-10-25T08:55:22.071Z,45.06
2023-10-25T08:56:18.960Z,45.74
2023-10-25T08:57:18.554Z,45.22
2023-10-25T08:58:16.995Z,45.36
2023-10-25T08:59:13.678Z,44.78
2023-10-25T09:00:13.173Z,45.01
2023-10-25T09:01:09.864Z,44.84
2023-10-25T09:02:07.173Z,44.50
2023-10-25T09:03:04.821Z,45.01
2023-10-25T09:04:09.059Z,43.91
2023-10-25T09:05:10.022Z,44.22
2023-10-25T09:06:08.844Z,44.63
2023-10-25T09:07:33.623Z,44.64
2023-10-25T09:08:31.746Z,44.67
2023-10-25T09:09:40.555Z,44.79
2023-10-25T09:10:37.564Z,43.98
2023-10-25T09:11:45.262Z,43.64
2023-10-25T09:12:42.045Z,43.33
2023-10-25T09:13:44.614Z,43.27
2023-10-25T09:14:48.784Z,43.33
2023-10-25T09:15:46.398Z,43.19
2023-10-25T09:16:44.949Z,43.39
2023-10-25T09:17:41.733Z,43.29
2023-10-25T09:18:39.823Z,43.17
2023-10-25T09:19:36.687Z,42.53
2023-10-25T09:20:33.828Z,42.66
2023-10-25T09:21:30.943Z,42.58
2023-10-25T09:22:31.610Z,42.29
2023-10-25T09:23:29.593Z,42.13
2023-10-25T09:24:26.329Z,41.89
2023-10-25T09:25:31.007Z,41.41
2023-10-25T09:26:34.726Z,41.94
2023-10-25T09:27:33.881Z,41.81
2023-10-25T09:28:31.661Z,41.01
2023-10-25T09:29:32.901Z,41.30
2023-10-25T09:30:31.389Z,41.28
2023-10-25T09:31:31.985Z,41.04
2023-10-25T09:32:28.792Z,41.44
2023-10-25T09:33:28.491Z,40.76
2023-10-25T09:34:25.336Z,40.46
2023-10-25T09:35:22.234Z,40.84
2023-10-25T09:36:22.594Z,40.23
2023-10-25T09:37:19.640Z,40.87
2023-10-25T09:38:17.054Z,40.71
2023-10-25T09:39:13.667Z,40.80
2023-10-25T09:40:11.338Z,40.42
2023-10-25T09:41:14.998Z,39.51
2023-10-25T09:42:14.140Z,40.58
2023-10-25T09:43:21.679Z,40.48
2023-10-25T09:44:20.833Z,40.12
2023-10-25T09:45:25.043Z,40.28
2023-10-25T09:46:24.352Z,39.66
2023-10-25T09:47:26.282Z,38.84
2023-10-25T09:48:23.576Z,38.61
2023-10-25T09:49:23.877Z,39.00
2023-10-25T09:50:33.112Z,38.97
2023-10-25T09:51:54.996Z,38.87
2023-10-25T09:53:00.094Z,38.16
2023-10-25T09:54:10.168Z,39.09
2023-10-25T09:55:19.475Z,38.42
2023-10-25T09:56:17.504Z,37.71
2023-10-25T09:57:15.172Z,37.85
2023-10-25T09:58:14.108Z,38.01
2023-10-25T09:59:12.872Z,38.21
2023-10-25T10:00:10.790Z,38.58
2023-10-25T10:01:10.603Z,39.57
2023-10-25T10:02:09.804Z,39.67
2023-10-25T10:03:27.247Z,38.78
2023-10-25T10:04:58.820Z,37.84
2023-10-25T10:06:34.677Z,38.40
2023-10-25T10:07:56.094Z,38.65
2023-10-25T10:09:14.376Z,38.56
2023-10-25T10:10:28.515Z,38.50
2023-10-25T10:11:28.308Z,38.99
2023-10-25T10:12:25.081Z,38.49
2023-10-25T10:13:22.065Z,38.27
2023-10-25T10:14:38.829Z,38.54
2023-10-25T10:16:01.882Z,39.10
2023-10-25T10:17:16.446Z,39.17
2023-10-25T10:18:13.328Z,39.13
2023-10-25T10:19:12.396Z,39.08
2023-10-25T10:20:22.118Z,39.15
2023-10-25T10:21:18.847Z,39.08
2023-10-25T10:22:17.982Z,39.12
2023-10-25T10:23:17.741Z,39.24
2023-10-25T10:25:01.755Z,38.66
2023-10-25T10:25:58.563Z,38.71
2023-10-25T10:26:55.288Z,38.64
2023-10-25T10:28:02.406Z,39.35
2023-10-25T10:28:59.000Z,38.84
2023-10-25T10:29:56.568Z,39.57
2023-10-25T10:30:55.949Z,39.09
2023-10-25T10:31:59.857Z,39.54
2023-10-25T10:32:57.648Z,39.50
2023-10-25T10:33:54.371Z,38.93
2023-10-25T10:34:58.793Z,39.13
2023-10-25T10:36:01.381Z,38.86
2023-10-25T10:37:14.208Z,38.93
2023-10-25T10:38:10.862Z,39.44
2023-10-25T10:39:18.080Z,39.42
2023-10-25T10:40:15.381Z,38.79
2023-10-25T10:41:15.053Z,38.37
2023-10-25T10:42:20.805Z,38.60
2023-10-25T10:43:17.764Z,38.41
2023-10-25T10:44:14.488Z,38.39
2023-10-25T10:45:13.986Z,38.14
2023-10-25T10:46:12.387Z,37.67
2023-10-25T10:47:12.310Z,38.26
2023-10-25T10:48:25.830Z,38.38
2023-10-25T10:49:23.756Z,37.87
2023-10-25T10:50:23.367Z,37.57
2023-10-25T10:51:20.040Z,37.92
2023-10-25T10:52:16.913Z,37.45
2023-10-25T10:53:13.559Z,38.12
2023-10-25T10:54:10.280Z,37.98
2023-10-25T10:55:08.911Z,38.14
2023-10-25T10:56:05.699Z,37.97
2023-10-25T10:57:02.887Z,38.23
2023-10-25T10:58:08.458Z,38.29
2023-10-25T10:59:07.300Z,38.45
2023-10-25T11:00:11.302Z,38.79
2023-10-25T11:01:08.138Z,38.76
2023-10-25T11:02:05.436Z,39.05
2023-10-25T11:03:05.808Z,39.12
2023-10-25T11:04:05.166Z,39.21
2023-10-25T11:05:01.991Z,39.50
2023-10-25T11:06:00.104Z,39.45
2023-10-25T11:06:56.879Z,39.76
2023-10-25T11:07:55.070Z,39.19
2023-10-25T11:08:52.573Z,39.49
2023-10-25T11:09:49.267Z,39.66
2023-10-25T11:10:45.962Z,39.72
2023-10-25T11:11:42.627Z,39.87
2023-10-25T11:12:40.585Z,39.92
2023-10-25T11:13:37.447Z,40.15
2023-10-25T11:14:47.217Z,40.10
2023-10-25T11:15:43.899Z,40.12
2023-10-25T11:16:40.665Z,40.11
2023-10-25T11:17:38.008Z,40.38
2023-10-25T11:18:34.743Z,40.05
2023-10-25T11:19:34.699Z,39.94
2023-10-25T11:20:32.560Z,40.00
2023-10-25T11:21:33.567Z,39.99
2023-10-25T11:22:33.210Z,39.99
2023-10-25T11:23:30.198Z,40.15
2023-10-25T11:24:27.743Z,39.90
2023-10-25T11:25:28.814Z,40.50
2023-10-25T11:26:25.504Z,40.82
2023-10-25T11:27:22.403Z,40.92
2023-10-25T11:28:21.569Z,40.78
2023-10-25T11:29:18.205Z,40.96
2023-10-25T11:30:15.821Z,40.87
2023-10-25T11:31:12.555Z,41.24
2023-10-25T11:32:15.726Z,41.27
2023-10-25T11:33:12.826Z,41.08
2023-10-25T11:34:09.583Z,41.33
2023-10-25T11:35:08.565Z,41.70
2023-10-25T11:36:06.543Z,41.77
2023-10-25T11:37:04.072Z,41.89
2023-10-25T11:38:00.832Z,42.01
2023-10-25T11:39:11.631Z,41.85
2023-10-25T11:40:08.697Z,42.14
2023-10-25T11:41:05.404Z,42.10
2023-10-25T11:42:02.486Z,42.16
2023-10-25T11:43:00.819Z,42.42
2023-10-25T11:43:58.940Z,42.45
2023-10-25T11:44:58.182Z,42.41
2023-10-25T11:45:55.060Z,42.07
2023-10-25T11:46:56.637Z,42.29
2023-10-25T11:47:55.647Z,42.58
2023-10-25T11:48:52.542Z,42.40
2023-10-25T11:49:54.089Z,42.15
2023-10-25T11:50:50.852Z,41.88
2023-10-25T11:51:47.631Z,41.65
2023-10-25T11:52:44.301Z,41.82
2023-10-25T11:53:40.980Z,42.27
2023-10-25T11:54:37.696Z,42.03
2023-10-25T11:55:34.444Z,42.00
2023-10-25T11:56:32.014Z,42.01
2023-10-25T11:57:30.484Z,42.00
2023-10-25T11:58:30.417Z,41.89
2023-10-25T11:59:27.058Z,41.69
2023-10-25T12:00:23.685Z,41.61
2023-10-25T12:01:20.668Z,41.65
2023-10-25T12:02:20.328Z,41.82
2023-10-25T12:03:17.217Z,41.60
2023-10-25T12:04:14.603Z,41.71
2023-10-25T12:05:11.643Z,41.93
2023-10-25T12:06:08.458Z,41.85
2023-10-25T12:07:06.158Z,42.06
2023-10-25T12:08:02.833Z,42.04
2023-10-25T12:09:00.880Z,42.17
2023-10-25T12:09:57.917Z,42.23
2023-10-25T12:10:54.585Z,42.48
2023-10-25T12:11:51.273Z,42.47
2023-10-25T12:12:47.927Z,42.38
2023-10-25T12:13:44.667Z,42.89
2023-10-25T12:14:41.467Z,42.52
2023-10-25T12:15:38.255Z,42.85
2023-10-25T12:16:34.950Z,42.80
2023-10-25T12:17:31.691Z,42.62
2023-10-25T12:18:28.696Z,42.57
2023-10-25T12:19:25.935Z,42.53
2023-10-25T12:20:28.256Z,42.40
2023-10-25T12:21:25.500Z,42.93
2023-10-25T12:22:22.204Z,42.89
2023-10-25T12:23:18.855Z,42.42
2023-10-25T12:24:15.477Z,42.69
2023-10-25T12:25:12.158Z,42.78
2023-10-25T12:26:09.960Z,42.65
2023-10-25T12:27:08.309Z,42.95
2023-10-25T12:28:05.563Z,42.54
2023-10-25T12:29:04.521Z,42.83
2023-10-25T12:30:01.187Z,42.66
2023-10-25T12:30:59.189Z,42.92
2023-10-25T12:31:56.727Z,43.34
2023-10-25T12:32:55.372Z,43.15
2023-10-25T12:33:52.157Z,43.23
2023-10-25T12:34:49.436Z,43.17
2023-10-25T12:35:46.261Z,43.32
2023-10-25T12:36:42.912Z,43.28
2023-10-25T12:37:40.114Z,43.58